Time;durP1;ratioP1;P1;durP2;ratioP2;P2;SDS_P1;SDS_P2;PMS_P1;PMS_P2;Temp;Humidity;BMP_temperature;BMP_pressure;BME280_temperature;BME280_humidity;BME280_pressure;Samples;Min_cycle;Max_cycle;Signal;HPM_P1;HPM_P2
2023/07/15 00:01:34;;;;;;;4.35;2.60;;;;;;;20.30;100.00;96877.47;5031107;28;21007;-73
2023/07/15 00:04:00;;;;;;;4.32;3.13;;;;;;;20.31;100.00;96875.59;5031001;28;20419;-72
2023/07/15 00:06:28;;;;;;;3.63;2.80;;;;;;;20.27;100.00;96878.16;5031245;28;20407;-72
2023/07/15 00:08:55;;;;;;;4.03;2.95;;;;;;;20.29;100.00;96880.53;5031164;28;20426;-74
2023/07/15 00:11:26;;;;;;;4.18;3.25;;;;;;;20.26;100.00;96873.88;5030947;28;20415;-72
2023/07/15 00:13:53;;;;;;;4.10;2.90;;;;;;;20.26;100.00;96871.19;5029519;28;20407;-73
2023/07/15 00:16:19;;;;;;;5.32;2.97;;;;;;;20.28;100.00;96887.78;5031026;28;20418;-73
2023/07/15 00:18:45;;;;;;;5.00;3.25;;;;;;;20.25;100.00;96872.31;5031069;28;20403;-72
2023/07/15 00:21:20;;;;;;;4.22;2.88;;;;;;;20.25;100.00;96883.06;5031076;28;20434;-72
2023/07/15 00:23:48;;;;;;;4.40;2.90;;;;;;;20.25;100.00;96883.06;5030793;28;20915;-73
2023/07/15 00:26:15;;;;;;;4.27;3.17;;;;;;;20.29;100.00;96875.16;5030692;28;20407;-72
2023/07/15 00:28:41;;;;;;;3.78;3.00;;;;;;;20.28;100.00;96871.66;5030777;28;20437;-72
2023/07/15 00:31:13;;;;;;;4.95;3.22;;;;;;;20.26;100.00;96871.19;5030839;28;20415;-72
2023/07/15 00:33:40;;;;;;;3.17;2.85;;;;;;;20.29;100.00;96881.31;5030752;28;20411;-72
2023/07/15 00:36:06;;;;;;;3.38;2.60;;;;;;;20.25;100.00;96877.69;5030702;28;20403;-72
2023/07/15 00:38:33;;;;;;;4.53;2.70;;;;;;;20.26;100.00;96884.63;5030617;28;20410;-72
2023/07/15 00:41:10;;;;;;;5.65;3.15;;;;;;;20.24;100.00;96878.00;5030589;28;20486;-72
2023/07/15 00:43:58;;;;;;;4.53;3.30;;;;;;;20.25;100.00;96883.06;5030448;28;20893;-72
2023/07/15 00:46:55;;;;;;;4.93;3.40;;;;;;;20.22;100.00;96878.34;5030428;28;20754;-72
2023/07/15 00:49:23;;;;;;;5.40;3.30;;;;;;;20.24;100.00;96884.16;5029161;28;20942;-72
2023/07/15 00:52:09;;;;;;;5.13;3.03;;;;;;;20.26;100.00;96886.53;5030388;28;20407;-72
2023/07/15 00:54:38;;;;;;;3.72;2.92;;;;;;;20.26;100.00;96890.00;5030372;28;20410;-71
2023/07/15 00:57:07;;;;;;;4.55;3.60;;;;;;;20.26;100.00;96889.22;5030433;28;20911;-72
2023/07/15 00:59:34;;;;;;;4.53;3.13;;;;;;;20.33;100.00;96887.63;5030314;28;20399;-73
2023/07/15 01:02:02;;;;;;;4.40;3.22;;;;;;;20.34;100.00;96875.75;5030285;28;20402;-73
2023/07/15 01:04:29;;;;;;;4.45;2.90;;;;;;;20.49;100.00;96879.78;5030109;28;20411;-73
2023/07/15 01:06:55;;;;;;;6.23;3.10;;;;;;;20.61;100.00;96881.72;5030514;28;20399;-73
2023/07/15 01:09:22;;;;;;;4.60;2.83;;;;;;;20.63;100.00;96882.19;5030328;28;20403;-73
2023/07/15 01:11:48;;;;;;;5.97;3.20;;;;;;;20.68;100.00;96879.31;5030230;28;20457;-73
2023/07/15 01:14:14;;;;;;;4.03;2.88;;;;;;;20.76;100.00;96878.47;5030146;28;20593;-73
2023/07/15 01:16:41;;;;;;;4.77;2.97;;;;;;;20.80;100.00;96879.38;5030237;28;20462;-73
2023/07/15 01:19:09;;;;;;;4.43;3.13;;;;;;;20.85;100.00;96871.91;5030318;28;20417;-73
2023/07/15 01:21:37;;;;;;;6.40;2.95;;;;;;;20.86;100.00;96868.09;5030117;28;20438;-73
2023/07/15 01:24:07;;;;;;;4.03;2.65;;;;;;;20.87;100.00;96863.50;5024372;28;20414;-73
2023/07/15 01:26:33;;;;;;;6.13;3.17;;;;;;;20.85;100.00;96869.22;5029975;28;20403;-73
2023/07/15 01:29:00;;;;;;;5.72;2.78;;;;;;;20.85;100.00;96871.91;5030200;28;20453;-73
2023/07/15 01:31:30;;;;;;;4.22;2.90;;;;;;;20.89;100.00;96882.00;5029941;28;20460;-73
2023/07/15 01:33:56;;;;;;;5.65;3.08;;;;;;;20.94;100.00;96879.13;5029888;28;20399;-73
2023/07/15 01:36:24;;;;;;;6.43;2.92;;;;;;;20.85;100.00;96876.50;5029922;28;20407;-73
2023/07/15 01:38:50;;;;;;;4.55;2.78;;;;;;;20.96;100.00;96869.59;5030362;28;20885;-73
2023/07/15 01:41:18;;;;;;;4.13;2.78;;;;;;;20.96;100.00;96871.50;5034013;28;20418;-73
2023/07/15 01:43:44;;;;;;;3.60;2.80;;;;;;;21.01;100.00;96873.97;5033689;28;20781;-73
2023/07/15 01:46:10;;;;;;;5.50;2.95;;;;;;;20.99;100.00;96866.22;5033806;28;20492;-73
2023/07/15 01:48:37;;;;;;;3.83;2.85;;;;;;;21.03;100.00;96871.75;5033731;28;20489;-73
2023/07/15 01:51:03;;;;;;;6.38;3.50;;;;;;;21.03;100.00;96871.75;5033810;28;20398;-73
2023/07/15 01:53:29;;;;;;;4.65;2.80;;;;;;;20.99;100.00;96874.31;5033614;28;20465;-73
2023/07/15 01:55:55;;;;;;;5.78;2.90;;;;;;;21.00;100.00;96867.03;5033593;28;20406;-73
2023/07/15 01:58:23;;;;;;;7.13;2.70;;;;;;;20.98;100.00;96863.88;5033591;28;20421;-73
2023/07/15 02:00:49;;;;;;;3.75;2.70;;;;;;;21.01;100.00;96861.31;5033490;28;20431;-73
2023/07/15 02:03:15;;;;;;;6.05;3.22;;;;;;;20.98;100.00;96858.47;5033521;28;20438;-73
2023/07/15 02:05:42;;;;;;;4.82;2.80;;;;;;;21.02;100.00;96856.72;5033260;28;20927;-73
2023/07/15 02:08:08;;;;;;;3.10;2.50;;;;;;;21.02;100.00;96862.88;5033473;28;20490;-73
2023/07/15 02:10:34;;;;;;;4.40;2.95;;;;;;;20.99;100.00;96855.47;5033353;28;20949;-73
2023/07/15 02:13:00;;;;;;;5.88;3.05;;;;;;;21.00;100.00;96854.34;5033265;28;20407;-73
2023/07/15 02:15:28;;;;;;;3.75;2.65;;;;;;;20.99;100.00;96850.09;5033352;28;20741;-73
2023/07/15 02:17:54;;;;;;;5.30;3.00;;;;;;;20.99;100.00;96847.41;5032204;28;20765;-73
2023/07/15 02:20:21;;;;;;;3.50;2.63;;;;;;;21.04;100.00;96854.50;5033238;28;20835;-74
2023/07/15 02:22:47;;;;;;;3.22;2.50;;;;;;;21.04;100.00;96854.50;5033139;28;20406;-73
2023/07/15 02:25:13;;;;;;;4.55;2.67;;;;;;;21.04;100.00;96854.50;5032994;28;20426;-73
2023/07/15 02:27:39;;;;;;;4.38;2.90;;;;;;;21.04;100.00;96847.22;5033090;28;20399;-73
2023/07/15 02:30:09;;;;;;;5.20;3.00;;;;;;;20.98;100.00;96845.81;5031775;28;20490;-73
2023/07/15 02:32:39;;;;;;;4.32;2.67;;;;;;;20.95;100.00;96840.31;5032925;28;20781;-73
2023/07/15 02:35:08;;;;;;;3.95;2.65;;;;;;;20.95;100.00;96843.81;5032855;28;20403;-73
2023/07/15 02:37:34;;;;;;;5.90;3.00;;;;;;;20.93;100.00;96848.72;5033020;28;20406;-73
2023/07/15 02:40:01;;;;;;;5.40;2.90;;;;;;;20.93;100.00;96848.72;5032923;28;20399;-73
2023/07/15 02:42:27;;;;;;;3.90;2.37;;;;;;;20.89;100.00;96847.81;5032712;28;20901;-73
2023/07/15 02:44:53;;;;;;;4.63;2.60;;;;;;;20.88;100.00;96850.84;5032554;28;20419;-73
2023/07/15 02:47:19;;;;;;;3.83;2.58;;;;;;;20.84;100.00;96848.78;5032832;28;20460;-73
2023/07/15 02:49:47;;;;;;;6.25;3.10;;;;;;;20.80;100.00;96844.41;5032601;28;20409;-73
2023/07/15 02:52:13;;;;;;;4.45;2.60;;;;;;;20.78;100.00;96843.94;5031497;28;20407;-73
2023/07/15 02:54:40;;;;;;;5.70;2.80;;;;;;;20.74;100.00;96841.16;5032467;28;21083;-73
2023/07/15 02:57:07;;;;;;;4.10;2.70;;;;;;;20.73;100.00;96838.78;5032506;28;20438;-73
2023/07/15 02:59:34;;;;;;;5.90;2.90;;;;;;;20.71;100.00;96843.69;5032431;28;20399;-73
2023/07/15 03:02:01;;;;;;;4.22;2.72;;;;;;;20.71;100.00;96849.88;5032446;28;20403;-73
2023/07/15 03:04:27;;;;;;;3.35;2.80;;;;;;;20.67;100.00;96848.19;5032157;28;20418;-73
2023/07/15 03:06:55;;;;;;;5.07;2.65;;;;;;;20.60;100.00;96837.91;5032428;28;20426;-73
2023/07/15 03:09:21;;;;;;;4.55;2.75;;;;;;;20.58;100.00;96847.44;5032298;28;20901;-73
2023/07/15 03:11:47;;;;;;;5.80;2.90;;;;;;;20.52;100.00;96843.38;5032255;28;20739;-73
2023/07/15 03:14:14;;;;;;;4.72;2.78;;;;;;;20.47;100.00;96842.47;5032120;28;20410;-73
2023/07/15 03:16:40;;;;;;;4.03;2.90;;;;;;;20.42;100.00;96848.03;5032331;28;20661;-73
2023/07/15 03:19:06;;;;;;;4.38;2.85;;;;;;;20.38;100.00;96847.09;5032124;28;20414;-73
2023/07/15 03:21:33;;;;;;;4.73;2.93;;;;;;;20.38;100.00;96844.41;5031934;28;20403;-73
2023/07/15 03:24:01;;;;;;;3.92;2.83;;;;;;;20.37;100.00;96840.16;5031781;28;20940;-73
2023/07/15 03:26:27;;;;;;;4.32;2.85;;;;;;;20.34;100.00;96845.41;5031585;28;20402;-73
2023/07/15 03:28:53;;;;;;;3.25;2.63;;;;;;;20.30;100.00;96841.75;5031881;28;20757;-73
2023/07/15 03:31:19;;;;;;;3.63;3.00;;;;;;;20.29;100.00;96835.63;5031779;28;20406;-73
2023/07/15 03:33:46;;;;;;;4.50;2.63;;;;;;;20.26;100.00;96838.94;5031706;28;20409;-72
2023/07/15 03:36:12;;;;;;;3.95;2.85;;;;;;;20.26;100.00;96838.16;5031692;28;20399;-73
2023/07/15 03:38:38;;;;;;;5.13;3.03;;;;;;;20.21;100.00;96841.84;5031875;28;20749;-73
2023/07/15 03:41:06;;;;;;;5.82;2.78;;;;;;;20.21;100.00;96835.66;5031784;28;20422;-73
2023/07/15 03:43:32;;;;;;;4.65;3.10;;;;;;;20.18;100.00;96833.63;5031403;28;20434;-73
2023/07/15 03:45:58;;;;;;;5.07;2.85;;;;;;;20.16;100.00;96841.22;5031442;28;20442;-73
2023/07/15 03:48:24;;;;;;;4.75;3.28;;;;;;;20.12;100.00;96841.09;5031805;28;20796;-72
2023/07/15 03:50:50;;;;;;;5.43;2.83;;;;;;;20.05;100.00;96836.22;5031418;28;20558;-72
2023/07/15 03:53:16;;;;;;;6.22;3.30;;;;;;;20.07;100.00;96836.66;5031384;28;20414;-73
2023/07/15 03:55:43;;;;;;;4.05;2.95;;;;;;;20.04;100.00;96837.34;5031218;28;20431;-73
2023/07/15 03:58:10;;;;;;;4.57;2.72;;;;;;;20.02;100.00;96834.19;5031354;28;20898;-73
2023/07/15 04:00:36;;;;;;;3.33;2.60;;;;;;;20.04;100.00;96826.59;5031325;28;20943;-73
2023/07/15 04:03:03;;;;;;;6.22;2.90;;;;;;;20.02;100.00;96826.13;5030920;28;20408;-73
2023/07/15 04:05:29;;;;;;;5.07;3.23;;;;;;;20.05;100.00;96822.78;5031106;28;20419;-73
2023/07/15 04:07:55;;;;;;;5.70;3.20;;;;;;;20.05;100.00;96827.38;5031339;28;20549;-73
2023/07/15 04:10:21;;;;;;;6.22;3.25;;;;;;;20.03;100.00;96833.06;5031133;28;20824;-73
2023/07/15 04:12:47;;;;;;;4.30;3.27;;;;;;;20.05;100.00;96827.38;5031018;28;20472;-73
2023/07/15 04:15:15;;;;;;;4.90;3.13;;;;;;;20.07;100.00;96830.53;5030957;28;20873;-73
2023/07/15 04:17:41;;;;;;;5.60;3.00;;;;;;;20.10;100.00;96824.50;5031030;28;20407;-73
2023/07/15 04:20:11;;;;;;;5.80;3.53;;;;;;;20.11;100.00;96818.00;5031071;28;20486;-74
2023/07/15 04:22:38;;;;;;;5.43;3.20;;;;;;;20.16;100.00;96815.13;5030874;28;20406;-74
2023/07/15 04:25:05;;;;;;;4.25;3.00;;;;;;;20.22;100.00;96811.16;5030799;28;20814;-74
2023/07/15 04:27:31;;;;;;;4.00;2.95;;;;;;;20.36;100.00;96811.72;5030691;28;20407;-73
2023/07/15 04:29:57;;;;;;;5.53;3.40;;;;;;;20.40;100.00;96815.31;5030824;28;20411;-73
2023/07/15 04:32:25;;;;;;;4.40;3.10;;;;;;;20.45;100.00;96812.41;5030803;28;20407;-73
2023/07/15 04:34:51;;;;;;;4.15;3.03;;;;;;;20.54;100.00;96811.56;5029328;28;20411;-73
2023/07/15 04:37:18;;;;;;;3.45;2.80;;;;;;;20.58;100.00;96820.56;5031493;28;20403;-73
2023/07/15 04:39:44;;;;;;;4.72;3.00;;;;;;;20.59;100.00;96814.84;5031398;28;20410;-73
2023/07/15 04:42:10;;;;;;;5.45;3.15;;;;;;;20.65;100.00;96815.44;5031358;28;20414;-73
2023/07/15 04:44:36;;;;;;;3.50;2.92;;;;;;;20.71;100.00;96814.13;5031069;28;20415;-73
2023/07/15 04:47:03;;;;;;;4.93;2.80;;;;;;;20.75;100.00;96823.88;5031279;28;20453;-71
2023/07/15 04:49:30;;;;;;;5.05;3.00;;;;;;;20.93;100.00;96821.81;5030852;28;20411;-71
2023/07/15 04:51:56;;;;;;;3.80;2.70;;;;;;;20.91;100.00;96826.72;5030798;28;20407;-73
2023/07/15 04:54:22;;;;;;;4.88;3.20;;;;;;;21.09;100.00;96830.84;5030640;28;20407;-73
2023/07/15 04:56:49;;;;;;;4.53;2.97;;;;;;;21.10;100.00;96829.72;5031034;28;20435;-72
2023/07/15 04:59:15;;;;;;;4.53;3.30;;;;;;;21.13;100.00;96833.63;5030833;28;20409;-72
2023/07/15 05:01:41;;;;;;;6.47;3.17;;;;;;;21.29;100.00;96829.22;5039177;28;20407;-73
2023/07/15 05:04:08;;;;;;;4.40;2.75;;;;;;;21.41;100.00;96836.56;5030806;28;20415;-73
2023/07/15 05:06:36;;;;;;;6.70;3.13;;;;;;;21.47;100.00;96829.84;5030856;28;20444;-73
2023/07/15 05:09:04;;;;;;;7.40;3.20;;;;;;;21.48;100.00;96834.91;5030723;28;20765;-73
2023/07/15 05:11:31;;;;;;;4.72;2.72;;;;;;;21.41;100.00;96840.03;5029422;28;20434;-73
2023/07/15 05:13:57;;;;;;;5.55;2.80;;;;;;;21.53;100.00;96837.34;5031372;28;20482;-73
2023/07/15 05:16:23;;;;;;;4.65;2.80;;;;;;;21.61;100.00;96835.69;5033705;28;20476;-73
2023/07/15 05:18:49;;;;;;;4.93;3.03;;;;;;;21.64;100.00;96837.72;5035549;28;20407;-74
2023/07/15 05:21:16;;;;;;;6.03;3.00;;;;;;;21.64;100.00;96845.81;5034639;28;20844;-74
2023/07/15 05:23:44;;;;;;;4.17;2.73;;;;;;;21.72;100.00;96844.13;5033804;28;20399;-73
2023/07/15 05:26:10;;;;;;;5.63;2.80;;;;;;;21.79;100.00;96849.75;5033972;28;20410;-74
2023/07/15 05:28:38;;;;;;;4.63;2.58;;;;;;;21.78;100.00;96845.47;5032059;28;20422;-75
2023/07/15 05:31:04;;;;;;;4.70;2.72;;;;;;;21.87;100.00;96838.84;5034837;28;20403;-74
2023/07/15 05:33:31;;;;;;;7.05;2.80;;;;;;;21.93;100.00;96842.09;5034142;28;20407;-75
2023/07/15 05:35:58;;;;;;;6.47;2.80;;;;;;;21.88;100.00;96845.78;5033835;28;20410;-75
2023/07/15 05:38:25;;;;;;;4.95;2.63;;;;;;;21.97;100.00;96848.41;5033847;28;20486;-75
2023/07/15 05:40:54;;;;;;;3.28;2.40;;;;;;;22.03;100.00;96847.06;5033928;28;20411;-74
2023/07/15 05:43:21;;;;;;;4.03;2.67;;;;;;;22.07;100.00;96844.47;5033636;28;20764;-75
2023/07/15 05:45:47;;;;;;;4.30;2.53;;;;;;;22.08;100.00;96840.66;5034267;28;20426;-75
2023/07/15 05:48:13;;;;;;;5.60;2.88;;;;;;;22.30;100.00;96846.38;5034158;28;20425;-74
2023/07/15 05:50:40;;;;;;;3.55;2.38;;;;;;;22.29;100.00;96844.78;5033627;28;20465;-75
2023/07/15 05:53:08;;;;;;;4.75;2.83;;;;;;;22.24;100.00;96847.72;5033605;28;20431;-74
2023/07/15 05:55:35;;;;;;;3.40;2.40;;;;;;;22.20;100.00;96835.25;5033463;28;20820;-75
2023/07/15 05:58:09;;;;;;;5.25;2.75;;;;;;;22.49;100.00;96839.56;5028507;28;20835;-75
2023/07/15 06:00:36;;;;;;;5.63;2.50;;;;;;;22.40;100.00;96829.69;5026594;28;20488;-75
2023/07/15 06:03:03;;;;;;;3.42;2.28;;;;;;;22.46;100.00;96832.97;5033757;28;20427;-75
2023/07/15 06:05:30;;;;;;;3.70;2.60;;;;;;;22.61;100.00;96820.69;5030997;28;20428;-75
2023/07/15 06:07:56;;;;;;;2.72;2.33;;;;;;;22.59;100.00;96826.41;5013983;28;20431;-74
2023/07/15 06:10:22;;;;;;;2.90;2.30;;;;;;;22.59;100.00;96829.09;5013938;28;20554;-74
2023/07/15 06:12:50;;;;;;;3.55;2.50;;;;;;;22.70;100.00;96818.63;5013944;28;20491;-74
2023/07/15 06:15:18;;;;;;;2.80;2.27;;;;;;;22.73;100.00;96807.94;5013801;28;20405;-75
2023/07/15 06:17:44;;;;;;;3.55;2.47;;;;;;;22.69;100.00;96815.13;5013844;28;20961;-74
2023/07/15 06:20:12;;;;;;;4.97;2.73;;;;;;;22.83;100.00;96803.97;5013903;28;20432;-75
2023/07/15 06:22:38;;;;;;;4.47;2.40;;;;;;;22.72;100.00;96806.34;5014682;28;20912;-74
2023/07/15 06:25:05;;;;;;;3.63;2.53;;;;;;;22.81;100.00;96795.44;5028308;28;20921;-73
2023/07/15 06:27:31;;;;;;;3.33;2.47;;;;;;;22.88;100.00;96787.53;5024335;28;20928;-73
2023/07/15 06:29:57;;;;;;;3.03;2.13;;;;;;;22.93;100.00;96794.63;5026662;28;20473;-73
2023/07/15 06:32:25;;;;;;;3.35;2.17;;;;;;;22.93;100.00;96795.38;5015071;28;20413;-73
2023/07/15 06:34:51;;;;;;;6.57;2.63;;;;;;;22.89;100.00;96788.31;5011947;28;20433;-74
2023/07/15 06:37:17;;;;;;;5.60;2.17;;;;;;;23.09;100.00;96784.59;5012819;28;20416;-74
2023/07/15 06:39:43;;;;;;;3.37;2.43;;;;;;;23.09;100.00;96790.78;5030519;28;20495;-73
2023/07/15 06:42:09;;;;;;;2.65;2.10;;;;;;;23.14;100.00;96787.84;5031752;28;20430;-73
2023/07/15 06:44:36;;;;;;;4.15;2.42;;;;;;;23.27;100.00;96793.16;5032857;28;20415;-72
2023/07/15 06:47:02;;;;;;;4.25;2.22;;;;;;;23.41;100.00;96791.59;5033171;28;20787;-72
2023/07/15 06:49:30;;;;;;;3.50;2.10;;;;;;;23.48;98.36;96781.00;5031400;28;20498;-73
2023/07/15 06:51:57;;;;;;;3.83;2.50;;;;;;;23.73;87.88;96778.13;5032829;28;20482;-73
2023/07/15 06:54:23;;;;;;;5.10;2.38;;;;;;;24.13;79.67;96788.69;5032782;28;20403;-74
2023/07/15 06:56:50;;;;;;;6.60;2.65;;;;;;;24.05;82.08;96790.47;5032766;28;20404;-73
2023/07/15 06:59:16;;;;;;;4.68;2.65;;;;;;;23.98;88.48;96794.91;5032648;28;20885;-73
2023/07/15 07:01:42;;;;;;;4.65;2.55;;;;;;;23.91;83.52;96796.31;5032589;28;20419;-73
2023/07/15 07:04:08;;;;;;;4.55;2.47;;;;;;;24.12;80.81;96792.53;5032417;28;20819;-73
2023/07/15 07:06:36;;;;;;;3.17;2.25;;;;;;;24.27;81.82;96795.22;5031681;28;20445;-73
2023/07/15 07:09:02;;;;;;;4.00;2.50;;;;;;;24.38;81.70;96789.22;5031032;28;20453;-73
2023/07/15 07:11:28;;;;;;;3.72;2.65;;;;;;;24.40;90.42;96787.75;5030961;28;20939;-73
2023/07/15 07:13:54;;;;;;;3.53;2.22;;;;;;;24.36;84.42;96781.47;5030108;28;20403;-73
2023/07/15 07:16:20;;;;;;;2.65;2.20;;;;;;;24.43;88.64;96784.34;5029725;28;20407;-72
2023/07/15 07:18:47;;;;;;;3.25;2.17;;;;;;;24.41;85.34;96778.50;5029660;28;20483;-73
2023/07/15 07:21:13;;;;;;;3.27;2.20;;;;;;;24.41;88.29;96775.78;5029633;28;20403;-73
2023/07/15 07:23:40;;;;;;;4.85;2.25;;;;;;;24.78;80.30;96788.91;5030613;28;20466;-73
2023/07/15 07:26:07;;;;;;;3.33;2.00;;;;;;;24.71;83.41;96791.47;5030071;28;20908;-73
2023/07/15 07:28:41;;;;;;;3.95;2.22;;;;;;;24.89;82.07;96789.88;5030387;28;20494;-74
2023/07/15 07:31:07;;;;;;;6.93;2.63;;;;;;;24.87;80.68;96797.59;5031945;28;20403;-73
2023/07/15 07:33:34;;;;;;;4.55;2.30;;;;;;;25.30;71.86;96797.25;5031695;28;20433;-73
2023/07/15 07:36:00;;;;;;;2.30;1.90;;;;;;;25.06;77.58;96800.28;5031700;28;20823;-74
2023/07/15 07:38:26;;;;;;;4.30;2.63;;;;;;;25.24;72.78;96804.13;5031096;28;20426;-74
2023/07/15 07:40:53;;;;;;;5.47;2.33;;;;;;;25.26;75.83;96809.19;5031709;28;20417;-74
2023/07/15 07:43:20;;;;;;;3.42;2.40;;;;;;;25.17;75.44;96805.91;5039794;28;20762;-73
2023/07/15 07:45:46;;;;;;;3.10;2.40;;;;;;;25.49;72.08;96809.16;5011754;28;20953;-74
2023/07/15 07:48:13;;;;;;;2.80;2.13;;;;;;;25.33;73.71;96801.97;5011989;28;20405;-74
2023/07/15 07:50:39;;;;;;;2.95;2.13;;;;;;;25.28;77.81;96796.81;5011663;28;20415;-73
2023/07/15 07:53:05;;;;;;;2.95;2.10;;;;;;;25.27;73.95;96795.25;5016669;28;21017;-74
2023/07/15 07:55:31;;;;;;;3.67;2.22;;;;;;;25.37;77.98;96800.06;5031256;28;20399;-74
2023/07/15 07:57:59;;;;;;;3.70;2.38;;;;;;;25.74;70.81;96796.84;5031399;28;20486;-74
2023/07/15 08:00:25;;;;;;;3.07;2.30;;;;;;;25.73;78.08;96801.47;5031452;28;20414;-74
2023/07/15 08:02:51;;;;;;;4.20;2.30;;;;;;;25.75;74.55;96796.47;5031218;28;20458;-74
2023/07/15 08:05:18;;;;;;;2.90;2.10;;;;;;;26.19;71.59;96802.16;5030995;28;20414;-74
2023/07/15 08:07:44;;;;;;;3.97;2.40;;;;;;;26.34;70.94;96800.44;5023279;28;20918;-74
2023/07/15 08:10:11;;;;;;;2.90;2.03;;;;;;;26.41;74.71;96800.53;5031666;28;20879;-74
2023/07/15 08:12:37;;;;;;;3.70;2.20;;;;;;;26.86;67.32;96796.81;5031521;28;20410;-73
2023/07/15 08:15:05;;;;;;;4.90;2.42;;;;;;;26.70;66.54;96790.03;5030869;28;20407;-77
2023/07/15 08:17:31;;;;;;;4.07;2.47;;;;;;;26.67;68.38;96793.50;5030879;28;20482;-74
2023/07/15 08:19:58;;;;;;;2.37;2.07;;;;;;;26.77;74.30;96798.25;5031035;28;20418;-74
2023/07/15 08:22:24;;;;;;;3.60;2.30;;;;;;;26.86;67.59;96804.97;5031482;28;20406;-74
2023/07/15 08:24:50;;;;;;;2.58;1.88;;;;;;;26.83;73.36;96807.66;5030717;28;20805;-74
2023/07/15 08:27:16;;;;;;;4.63;2.47;;;;;;;26.89;63.51;96806.97;5031002;28;20407;-74
2023/07/15 08:29:42;;;;;;;4.70;2.25;;;;;;;26.77;68.51;96806.41;5030666;28;20403;-74
2023/07/15 08:32:10;;;;;;;2.22;1.90;;;;;;;26.71;75.57;96802.47;5030725;28;20438;-74
2023/07/15 08:34:36;;;;;;;3.42;2.20;;;;;;;26.74;77.56;96805.22;5030473;28;20417;-74
2023/07/15 08:37:03;;;;;;;2.10;1.77;;;;;;;26.74;83.27;96809.88;5031306;28;20478;-74
2023/07/15 08:39:29;;;;;;;2.20;1.73;;;;;;;26.76;87.24;96800.22;5030685;28;20411;-74
2023/07/15 08:41:57;;;;;;;3.08;2.15;;;;;;;26.83;91.57;96797.59;5030613;28;20965;-74
2023/07/15 08:44:23;;;;;;;3.17;2.22;;;;;;;26.79;83.38;96798.69;5030416;28;20499;-74
2023/07/15 08:46:53;;;;;;;4.03;2.20;;;;;;;27.04;75.56;96799.78;5030970;28;20812;-74
2023/07/15 08:49:23;;;;;;;2.92;2.10;;;;;;;27.07;78.44;96795.50;5030471;28;20809;-74
2023/07/15 08:51:49;;;;;;;3.00;2.08;;;;;;;27.11;80.57;96796.34;5030410;28;20402;-74
2023/07/15 08:54:16;;;;;;;4.60;2.40;;;;;;;27.01;78.22;96797.00;5030384;28;20907;-74
2023/07/15 08:56:42;;;;;;;3.22;1.90;;;;;;;27.13;87.74;96794.06;5030452;28;20816;-74
2023/07/15 08:59:10;;;;;;;2.47;1.90;;;;;;;27.18;86.44;96796.41;5030322;28;20422;-74
2023/07/15 09:01:36;;;;;;;3.33;2.10;;;;;;;27.14;68.46;96790.94;5030125;28;20406;-74
2023/07/15 09:04:02;;;;;;;3.20;2.45;;;;;;;27.33;75.65;96787.25;5030076;28;20497;-74
2023/07/15 09:06:30;;;;;;;2.80;2.20;;;;;;;27.48;75.52;96783.50;5030227;28;20457;-74
2023/07/15 09:08:56;;;;;;;2.60;2.00;;;;;;;27.53;79.37;96782.41;5030153;28;20424;-74
2023/07/15 09:11:22;;;;;;;2.97;1.92;;;;;;;27.63;81.13;96771.63;5030263;28;20477;-74
2023/07/15 09:13:48;;;;;;;2.30;1.85;;;;;;;27.80;87.50;96767.47;5034049;28;20405;-74
2023/07/15 09:16:15;;;;;;;2.67;2.00;;;;;;;27.98;74.53;96767.56;5018439;28;20405;-73
2023/07/15 09:18:43;;;;;;;3.97;2.20;;;;;;;28.16;70.56;96767.72;5029848;28;20399;-74
2023/07/15 09:21:11;;;;;;;2.45;2.00;;;;;;;28.13;68.52;96766.50;5030155;28;20418;-74
2023/07/15 09:23:44;;;;;;;4.97;2.65;;;;;;;28.52;64.78;96772.16;5029797;28;20399;-74
2023/07/15 09:26:11;;;;;;;3.00;2.10;;;;;;;28.62;60.80;96768.72;5029910;28;20425;-73
2023/07/15 09:28:40;;;;;;;5.78;2.67;;;;;;;28.37;60.19;96770.53;5030116;28;20498;-74
2023/07/15 09:31:07;;;;;;;2.47;2.00;;;;;;;28.39;63.48;96765.50;5030312;28;21109;-74
2023/07/15 09:33:35;;;;;;;3.95;2.22;;;;;;;28.63;60.35;96761.34;5029857;28;20438;-74
2023/07/15 09:36:02;;;;;;;3.33;2.28;;;;;;;28.59;58.48;96771.41;5029839;28;20398;-74
2023/07/15 09:38:32;;;;;;;4.47;2.38;;;;;;;28.54;58.38;96777.25;5029894;28;20442;-74
2023/07/15 09:41:00;;;;;;;3.47;2.53;;;;;;;28.83;56.95;96779.72;5029935;28;20407;-74
2023/07/15 09:43:48;;;;;;;4.35;2.30;;;;;;;29.00;53.45;96780.16;5029916;28;20409;-74
2023/07/15 09:46:16;;;;;;;4.82;2.10;;;;;;;28.92;58.78;96776.63;5029814;28;20419;-74
2023/07/15 09:48:43;;;;;;;3.55;2.30;;;;;;;29.02;57.59;96781.31;5029927;28;20417;-74
2023/07/15 09:51:12;;;;;;;6.75;2.30;;;;;;;29.05;59.56;96774.31;5029968;28;20403;-74
2023/07/15 09:53:42;;;;;;;2.25;2.05;;;;;;;28.99;64.46;96779.38;5029931;28;20395;-74
2023/07/15 09:56:11;;;;;;;3.63;2.40;;;;;;;29.01;63.59;96777.06;5029958;28;20395;-74
2023/07/15 09:58:41;;;;;;;5.47;2.30;;;;;;;28.83;60.08;96765.31;5029536;28;20773;-74
2023/07/15 10:01:14;;;;;;;3.78;2.08;;;;;;;28.84;54.77;96767.66;5032472;28;20399;-74
2023/07/15 10:03:45;;;;;;;4.10;2.13;;;;;;;28.67;53.02;96764.84;5033397;28;20395;-74
2023/07/15 10:06:12;;;;;;;2.63;2.10;;;;;;;28.96;57.74;96760.28;5033565;28;20419;-74
2023/07/15 10:08:39;;;;;;;2.63;2.13;;;;;;;29.03;56.89;96763.00;5033520;28;20488;-74
2023/07/15 10:11:06;;;;;;;2.73;2.30;;;;;;;29.13;64.67;96746.69;5033442;28;20785;-74
2023/07/15 10:13:35;;;;;;;2.87;2.20;;;;;;;29.56;61.33;96754.91;5033259;28;20410;-74
2023/07/15 10:16:02;;;;;;;3.40;2.30;;;;;;;29.82;55.59;96749.06;5031845;28;20399;-74
2023/07/15 10:18:32;;;;;;;2.97;2.03;;;;;;;29.80;58.17;96756.06;5031857;28;20494;-74
2023/07/15 10:21:02;;;;;;;4.15;2.35;;;;;;;29.71;56.80;96748.28;5033250;28;20443;-74
2023/07/15 10:23:30;;;;;;;2.87;1.93;;;;;;;29.91;54.95;96756.84;5039985;28;20401;-74
2023/07/15 10:26:02;;;;;;;5.10;2.60;;;;;;;29.79;56.23;96758.03;5018258;28;20509;-73
2023/07/15 10:28:32;;;;;;;2.42;1.98;;;;;;;29.53;59.10;96744.81;5033271;28;20461;-74
2023/07/15 10:31:11;;;;;;;2.60;2.10;;;;;;;29.63;56.88;96738.53;5032881;28;20411;-73
2023/07/15 10:33:55;;;;;;;2.85;1.80;;;;;;;29.47;63.84;96743.66;5032682;28;20411;-73
2023/07/15 10:36:41;;;;;;;2.63;1.97;;;;;;;29.47;66.45;96738.94;5032892;28;20401;-74
2023/07/15 10:39:15;;;;;;;2.33;1.92;;;;;;;29.52;70.10;96746.75;5033089;28;20441;-74
2023/07/15 10:41:42;;;;;;;2.63;2.00;;;;;;;29.49;64.49;96736.59;5032728;28;20405;-74
2023/07/15 10:44:19;;;;;;;4.43;2.30;;;;;;;29.75;53.62;96724.53;5032613;28;20403;-74
2023/07/15 10:46:50;;;;;;;2.83;2.20;;;;;;;29.98;55.67;96733.09;5033041;28;20453;-74
2023/07/15 10:49:17;;;;;;;3.40;2.30;;;;;;;30.35;50.16;96732.59;5032756;28;20861;-74
2023/07/15 10:51:44;;;;;;;3.88;2.40;;;;;;;29.92;50.30;96729.16;5031056;28;20493;-74
2023/07/15 10:54:10;;;;;;;3.70;2.10;;;;;;;29.97;55.18;96742.44;5032330;28;20403;-74
2023/07/15 10:56:36;;;;;;;3.20;1.97;;;;;;;29.74;59.09;96735.81;5032437;28;20485;-73
2023/07/15 10:59:02;;;;;;;1.97;1.77;;;;;;;30.11;55.34;96732.66;5032537;28;20403;-73
2023/07/15 11:01:30;;;;;;;2.70;1.93;;;;;;;30.31;56.99;96725.56;5032204;28;20403;-73
2023/07/15 11:04:04;;;;;;;2.40;1.93;;;;;;;30.37;57.56;96721.28;5031668;28;20453;-73
2023/07/15 11:06:30;;;;;;;1.70;1.60;;;;;;;30.57;62.38;96716.13;5032502;28;20419;-73
2023/07/15 11:08:56;;;;;;;1.80;1.47;;;;;;;30.73;67.90;96710.97;5031140;28;20415;-73
2023/07/15 11:11:24;;;;;;;2.83;1.80;;;;;;;30.54;52.00;96705.97;5031474;28;20889;-74
2023/07/15 11:13:50;;;;;;;2.55;2.00;;;;;;;30.69;55.69;96708.25;5031925;28;20409;-74
2023/07/15 11:16:16;;;;;;;2.30;2.10;;;;;;;31.15;49.70;96710.72;5031841;28;20431;-74
2023/07/15 11:18:43;;;;;;;2.80;1.90;;;;;;;31.46;49.01;96705.41;5031968;28;20403;-75
2023/07/15 11:21:10;;;;;;;3.67;1.90;;;;;;;31.74;46.86;96709.84;5032021;28;20455;-73
2023/07/15 11:23:36;;;;;;;3.10;2.15;;;;;;;31.73;46.07;96711.03;5031297;28;20738;-73
2023/07/15 11:26:09;;;;;;;4.20;1.88;;;;;;;31.47;50.28;96710.47;5031145;28;20769;-72
2023/07/15 11:28:47;;;;;;;2.00;1.67;;;;;;;31.36;50.79;96707.03;5031566;28;20403;-73
2023/07/15 11:31:13;;;;;;;3.25;1.90;;;;;;;31.21;49.25;96700.13;5030948;28;20407;-73